Map

Track Data

SID SEASON NUMBER BASIN SUBBASIN NAME ISO_TIME NATURE LAT LON WMO_WIND WMO_PRES WMO_AGENCY TRACK_TYPE DIST2LAND LANDFALL IFLAG USA_AGENCY USA_ATCF_ID USA_LAT USA_LON USA_RECORD USA_STATUS USA_WIND USA_PRES USA_SSHS USA_R34_NE USA_R34_SE USA_R34_SW USA_R34_NW USA_R50_NE USA_R50_SE USA_R50_SW USA_R50_NW USA_R64_NE USA_R64_SE USA_R64_SW USA_R64_NW USA_POCI USA_ROCI USA_RMW USA_EYE TOKYO_LAT TOKYO_LON TOKYO_GRADE TOKYO_WIND TOKYO_PRES TOKYO_R50_DIR TOKYO_R50_LONG TOKYO_R50_SHORT TOKYO_R30_DIR TOKYO_R30_LONG TOKYO_R30_SHORT TOKYO_LAND CMA_LAT CMA_LON CMA_CAT CMA_WIND CMA_PRES HKO_LAT HKO_LON HKO_CAT HKO_WIND HKO_PRES NEWDELHI_LAT NEWDELHI_LON NEWDELHI_GRADE NEWDELHI_WIND NEWDELHI_PRES NEWDELHI_CI NEWDELHI_DP NEWDELHI_POCI REUNION_LAT REUNION_LON REUNION_TYPE REUNION_WIND REUNION_PRES REUNION_TNUM REUNION_CI REUNION_RMW REUNION_R34_NE REUNION_R34_SE REUNION_R34_SW REUNION_R34_NW REUNION_R50_NE REUNION_R50_SE REUNION_R50_SW REUNION_R50_NW REUNION_R64_NE REUNION_R64_SE REUNION_R64_SW REUNION_R64_NW BOM_LAT BOM_LON BOM_TYPE BOM_WIND BOM_PRES BOM_TNUM BOM_CI BOM_RMW BOM_R34_NE BOM_R34_SE BOM_R34_SW BOM_R34_NW BOM_R50_NE BOM_R50_SE BOM_R50_SW BOM_R50_NW BOM_R64_NE BOM_R64_SE BOM_R64_SW BOM_R64_NW BOM_ROCI BOM_POCI BOM_EYE BOM_POS_METHOD BOM_PRES_METHOD NADI_LAT NADI_LON NADI_CAT NADI_WIND NADI_PRES WELLINGTON_LAT WELLINGTON_LON WELLINGTON_WIND WELLINGTON_PRES DS824_LAT DS824_LON DS824_STAGE DS824_WIND DS824_PRES TD9636_LAT TD9636_LON TD9636_STAGE TD9636_WIND TD9636_PRES TD9635_LAT TD9635_LON TD9635_WIND TD9635_PRES TD9635_ROCI NEUMANN_LAT NEUMANN_LON NEUMANN_CLASS NEUMANN_WIND NEUMANN_PRES MLC_LAT MLC_LON MLC_CLASS MLC_WIND MLC_PRES USA_GUST BOM_GUST BOM_GUST_PER REUNION_GUST REUNION_GUST_PER USA_SEAHGT USA_SEARAD_NE USA_SEARAD_SE USA_SEARAD_SW USA_SEARAD_NW STORM_SPEED STORM_DIR
1989230N14338 1989 82 NA NA ERIN 1989-08-18 00:00:00 TS 14.3000 -22.4000 25 1012 hurdat_atl main 529 529 O_____________ hurdat_atl AL071989 14.3000 -22.4000 TD 25 1012 -1 16 303
1989230N14338 1989 82 NA NA ERIN 1989-08-18 03:00:00 TS 14.7354 -23.0971 main 602 602 P_____________ AL071989 14.7354 -23.0971 TD 25 1012 -1 16 304
1989230N14338 1989 82 NA NA ERIN 1989-08-18 06:00:00 TS 15.2000 -23.8000 25 1012 hurdat_atl main 679 679 O_____________ hurdat_atl AL071989 15.2000 -23.8000 TD 25 1012 -1 17 306
1989230N14338 1989 82 NA NA ERIN 1989-08-18 09:00:00 TS 15.7073 -24.5075 main 759 759 P_____________ AL071989 15.7073 -24.5075 TD 25 1011 -1 17 307
1989230N14338 1989 82 NA NA ERIN 1989-08-18 12:00:00 TS 16.2000 -25.2000 25 1011 hurdat_atl main 842 842 O_____________ hurdat_atl AL071989 16.2000 -25.2000 TD 25 1011 -1 16 306
1989230N14338 1989 82 NA NA ERIN 1989-08-18 15:00:00 TS 16.6447 -25.8576 main 924 924 P_____________ AL071989 16.6447 -25.8576 TD 27 1010 -1 15 303
1989230N14338 1989 82 NA NA ERIN 1989-08-18 18:00:00 TS 17.0000 -26.5000 30 1010 hurdat_atl main 996 996 O_____________ hurdat_atl AL071989 17.0000 -26.5000 TD 30 1010 -1 14 296
1989230N14338 1989 82 NA NA ERIN 1989-08-18 21:00:00 TS 17.2371 -27.1279 main 1063 1063 P_____________ AL071989 17.2371 -27.1279 TD 30 1009 -1 13 288
1989230N14338 1989 82 NA NA ERIN 1989-08-19 00:00:00 TS 17.4000 -27.8000 30 1009 hurdat_atl main 1141 1141 O_____________ hurdat_atl AL071989 17.4000 -27.8000 TD 30 1009 -1 14 283
1989230N14338 1989 82 NA NA ERIN 1989-08-19 03:00:00 TS 17.5498 -28.5703 main 1226 1226 P_____________ AL071989 17.5498 -28.5703 TD 30 1008 -1 16 281
1989230N14338 1989 82 NA NA ERIN 1989-08-19 06:00:00 TS 17.7000 -29.4000 30 1008 hurdat_atl main 1314 1314 O_____________ hurdat_atl AL071989 17.7000 -29.4000 TD 30 1008 -1 16 282
1989230N14338 1989 82 NA NA ERIN 1989-08-19 09:00:00 TS 17.8923 -30.2500 main 1412 1412 P_____________ AL071989 17.8923 -30.2500 TD 30 1007 -1 17 284
1989230N14338 1989 82 NA NA ERIN 1989-08-19 12:00:00 TS 18.1000 -31.1000 30 1007 hurdat_atl main 1498 1498 O_____________ hurdat_atl AL071989 18.1000 -31.1000 TD 30 1007 -1 16 284
1989230N14338 1989 82 NA NA ERIN 1989-08-19 15:00:00 TS 18.2846 -31.9079 main 1575 1575 P_____________ AL071989 18.2846 -31.9079 TD 32 1006 -1 16 285
1989230N14338 1989 82 NA NA ERIN 1989-08-19 18:00:00 TS 18.5000 -32.7000 35 1005 hurdat_atl main 1652 1652 O_____________ hurdat_atl AL071989 18.5000 -32.7000 TS 35 1005 0 16 288
1989230N14338 1989 82 NA NA ERIN 1989-08-19 21:00:00 TS 18.7924 -33.5223 main 1729 1729 P_____________ AL071989 18.7924 -33.5223 TS 35 1004 0 16 292
1989230N14338 1989 82 NA NA ERIN 1989-08-20 00:00:00 TS 19.1000 -34.3000 35 1004 hurdat_atl main 1806 1806 O_____________ hurdat_atl AL071989 19.1000 -34.3000 TS 35 1004 0 15 292
1989230N14338 1989 82 NA NA ERIN 1989-08-20 03:00:00 TS 19.3570 -34.9729 main 1874 1874 P_____________ AL071989 19.3570 -34.9729 TS 37 1003 0 13 292
1989230N14338 1989 82 NA NA ERIN 1989-08-20 06:00:00 TS 19.6000 -35.6000 40 1003 hurdat_atl main 1934 1934 O_____________ hurdat_atl AL071989 19.6000 -35.6000 TS 40 1003 0 13 292
1989230N14338 1989 82 NA NA ERIN 1989-08-20 09:00:00 TS 19.8497 -36.2427 main 1993 1993 P_____________ AL071989 19.8497 -36.2427 TS 40 1002 0 13 292
1989230N14338 1989 82 NA NA ERIN 1989-08-20 12:00:00 TS 20.1000 -36.9000 40 1002 hurdat_atl main 2062 2062 O_____________ hurdat_atl AL071989 20.1000 -36.9000 TS 40 1002 0 14 292
1989230N14338 1989 82 NA NA ERIN 1989-08-20 15:00:00 TS 20.3498 -37.5927 main 2133 2132 P_____________ AL071989 20.3498 -37.5927 TS 40 1001 0 14 291
1989230N14338 1989 82 NA NA ERIN 1989-08-20 18:00:00 TS 20.6000 -38.3000 40 1001 hurdat_atl main 2203 2203 O_____________ hurdat_atl AL071989 20.6000 -38.3000 TS 40 1001 0 14 290
1989230N14338 1989 82 NA NA ERIN 1989-08-20 21:00:00 TS 20.8197 -39.0007 main 2274 2257 P_____________ AL071989 20.8197 -39.0007 TS 42 1000 0 14 291
1989230N14338 1989 82 NA NA ERIN 1989-08-21 00:00:00 TS 21.1000 -39.7000 45 1000 hurdat_atl main 2259 2240 O_____________ hurdat_atl AL071989 21.1000 -39.7000 TS 45 1000 0 15 297
1989230N14338 1989 82 NA NA ERIN 1989-08-21 03:00:00 TS 21.4901 -40.4301 main 2249 2239 P_____________ AL071989 21.4901 -40.4301 TS 45 999 0 16 305
1989230N14338 1989 82 NA NA ERIN 1989-08-21 06:00:00 TS 22.0000 -41.1000 45 998 hurdat_atl main 2251 2251 O_____________ hurdat_atl AL071989 22.0000 -41.1000 TS 45 998 0 16 315
1989230N14338 1989 82 NA NA ERIN 1989-08-21 09:00:00 TS 22.6122 -41.6527 main 2272 2272 P_____________ AL071989 22.6122 -41.6527 TS 45 997 0 16 325
1989230N14338 1989 82 NA NA ERIN 1989-08-21 12:00:00 TS 23.3000 -42.1000 45 997 hurdat_atl main 2318 2318 O_____________ hurdat_atl AL071989 23.3000 -42.1000 TS 45 997 0 16 331
1989230N14338 1989 82 NA NA ERIN 1989-08-21 15:00:00 TS 23.9848 -42.4879 main 2365 2365 P_____________ AL071989 23.9848 -42.4879 TS 47 995 0 15 335
1989230N14338 1989 82 NA NA ERIN 1989-08-21 18:00:00 TS 24.7000 -42.8000 50 994 hurdat_atl main 2419 2419 O_____________ hurdat_atl AL071989 24.7000 -42.8000 TS 50 994 0 16 340
1989230N14338 1989 82 NA NA ERIN 1989-08-21 21:00:00 TS 25.4499 -43.0655 main 2444 2433 P_____________ AL071989 25.4499 -43.0655 TS 52 993 0 16 343
1989230N14338 1989 82 NA NA ERIN 1989-08-22 00:00:00 TS 26.2000 -43.3000 55 992 hurdat_atl main 2433 2353 O_____________ hurdat_atl AL071989 26.2000 -43.3000 TS 55 992 0 15 344
1989230N14338 1989 82 NA NA ERIN 1989-08-22 03:00:00 TS 26.9224 -43.5355 main 2353 2269 P_____________ AL071989 26.9224 -43.5355 TS 57 990 0 15 342
1989230N14338 1989 82 NA NA ERIN 1989-08-22 06:00:00 TS 27.6000 -43.8000 60 989 hurdat_atl main 2269 2196 O_____________ hurdat_atl AL071989 27.6000 -43.8000 TS 60 989 0 14 338
1989230N14338 1989 82 NA NA ERIN 1989-08-22 09:00:00 TS 28.2375 -44.1350 main 2196 2120 P_____________ AL071989 28.2375 -44.1350 TS 62 987 0 14 333
1989230N14338 1989 82 NA NA ERIN 1989-08-22 12:00:00 TS 28.8000 -44.5000 65 986 hurdat_atl main 2120 2058 O_____________ hurdat_atl AL071989 28.8000 -44.5000 HU 65 986 1 12 329
1989230N14338 1989 82 NA NA ERIN 1989-08-22 15:00:00 TS 29.2949 -44.8503 main 2055 2004 P_____________ AL071989 29.2949 -44.8503 HU 67 984 1 11 326
1989230N14338 1989 82 NA NA ERIN 1989-08-22 18:00:00 TS 29.7000 -45.2000 70 983 hurdat_atl main 2004 1960 O_____________ hurdat_atl AL071989 29.7000 -45.2000 HU 70 983 1 10 319
1989230N14338 1989 82 NA NA ERIN 1989-08-22 21:00:00 TS 30.0225 -45.5727 main 1960 1920 P_____________ AL071989 30.0225 -45.5727 HU 70 982 1 9 315
1989230N14338 1989 82 NA NA ERIN 1989-08-23 00:00:00 TS 30.3000 -45.9000 70 981 hurdat_atl main 1920 1882 O_____________ hurdat_atl AL071989 30.3000 -45.9000 HU 70 981 1 8 319
1989230N14338 1989 82 NA NA ERIN 1989-08-23 03:00:00 TS 30.5999 -46.1600 main 1879 1845 P_____________ AL071989 30.5999 -46.1600 HU 72 980 1 7 330
1989230N14338 1989 82 NA NA ERIN 1989-08-23 06:00:00 TS 30.9000 -46.3000 75 979 hurdat_atl main 1845 1813 O_____________ hurdat_atl AL071989 30.9000 -46.3000 HU 75 979 1 6 349
1989230N14338 1989 82 NA NA ERIN 1989-08-23 09:00:00 TS 31.2074 -46.2953 main 1813 1783 P_____________ AL071989 31.2074 -46.2953 HU 77 978 1 6 8
1989230N14338 1989 82 NA NA ERIN 1989-08-23 12:00:00 TS 31.5000 -46.2000 80 977 hurdat_atl main 1783 1762 O_____________ hurdat_atl AL071989 31.5000 -46.2000 HU 80 977 1 6 15
1989230N14338 1989 82 NA NA ERIN 1989-08-23 15:00:00 TS 31.7500 -46.1223 main 1765 1736 P_____________ AL071989 31.7500 -46.1223 HU 80 976 1 5 19
1989230N14338 1989 82 NA NA ERIN 1989-08-23 18:00:00 TS 32.0000 -46.0000 80 975 hurdat_atl main 1736 1711 O_____________ hurdat_atl AL071989 32.0000 -46.0000 HU 80 975 1 6 26
1989230N14338 1989 82 NA NA ERIN 1989-08-23 21:00:00 TS 32.2850 -45.8150 main 1711 1686 P_____________ AL071989 32.2850 -45.8150 HU 82 974 1 7 29
1989230N14338 1989 82 NA NA ERIN 1989-08-24 00:00:00 TS 32.6000 -45.6000 85 973 hurdat_atl main 1686 1658 O_____________ hurdat_atl AL071989 32.6000 -45.6000 HU 85 973 2 7 27
1989230N14338 1989 82 NA NA ERIN 1989-08-24 03:00:00 TS 32.9348 -45.4220 main 1661 1626 P_____________ AL071989 32.9348 -45.4220 HU 85 972 2 8 26
1989230N14338 1989 82 NA NA ERIN 1989-08-24 06:00:00 TS 33.3000 -45.2000 85 971 hurdat_atl main 1626 1596 O_____________ hurdat_atl AL071989 33.3000 -45.2000 HU 85 971 2 9 31
1989230N14338 1989 82 NA NA ERIN 1989-08-24 09:00:00 TS 33.6774 -44.8871 main 1596 1570 P_____________ AL071989 33.6774 -44.8871 HU 87 970 2 10 36
1989230N14338 1989 82 NA NA ERIN 1989-08-24 12:00:00 TS 34.1000 -44.5000 90 970 hurdat_atl main 1570 1542 O_____________ hurdat_atl AL071989 34.1000 -44.5000 HU 90 970 2 11 37
1989230N14338 1989 82 NA NA ERIN 1989-08-24 15:00:00 TS 34.5697 -44.0867 main 1536 1509 P_____________ AL071989 34.5697 -44.0867 HU 90 969 2 12 37
1989230N14338 1989 82 NA NA ERIN 1989-08-24 18:00:00 TS 35.1000 -43.6000 90 969 hurdat_atl main 1509 1483 O_____________ hurdat_atl AL071989 35.1000 -43.6000 HU 90 969 2 14 38
1989230N14338 1989 82 NA NA ERIN 1989-08-24 21:00:00 TS 35.6774 -43.0295 main 1478 1452 P_____________ AL071989 35.6774 -43.0295 HU 90 968 2 15 39
1989230N14338 1989 82 NA NA ERIN 1989-08-25 00:00:00 TS 36.3000 -42.4000 90 968 hurdat_atl main 1452 1429 O_____________ hurdat_atl AL071989 36.3000 -42.4000 HU 90 968 2 16 39
1989230N14338 1989 82 NA NA ERIN 1989-08-25 03:00:00 TS 36.9347 -41.7638 main 1429 1405 P_____________ AL071989 36.9347 -41.7638 HU 90 968 2 17 39
1989230N14338 1989 82 NA NA ERIN 1989-08-25 06:00:00 TS 37.6000 -41.1000 90 969 hurdat_atl main 1408 1394 O_____________ hurdat_atl AL071989 37.6000 -41.1000 HU 90 969 2 17 39
1989230N14338 1989 82 NA NA ERIN 1989-08-25 09:00:00 TS 38.2772 -40.4061 main 1392 1381 P_____________ AL071989 38.2772 -40.4061 HU 90 970 2 18 38
1989230N14338 1989 82 NA NA ERIN 1989-08-25 12:00:00 TS 39.0000 -39.7000 90 971 hurdat_atl main 1381 1368 O_____________ hurdat_atl AL071989 39.0000 -39.7000 HU 90 971 2 19 37
1989230N14338 1989 82 NA NA ERIN 1989-08-25 15:00:00 TS 39.7775 -38.9769 main 1367 1360 P_____________ AL071989 39.7775 -38.9769 HU 87 972 2 19 34
1989230N14338 1989 82 NA NA ERIN 1989-08-25 18:00:00 TS 40.6000 -38.3000 85 973 hurdat_atl main 1361 1351 O_____________ hurdat_atl AL071989 40.6000 -38.3000 HU 85 973 2 19 30
1989230N14338 1989 82 NA NA ERIN 1989-08-25 21:00:00 TS 41.4120 -37.7175 main 1353 1334 P_____________ AL071989 41.4120 -37.7175 HU 82 974 1 19 26
1989230N14338 1989 82 NA NA ERIN 1989-08-26 00:00:00 TS 42.3000 -37.2000 80 976 hurdat_atl main 1336 1316 O_____________ hurdat_atl AL071989 42.3000 -37.2000 HU 80 976 1 20 22
1989230N14338 1989 82 NA NA ERIN 1989-08-26 03:00:00 TS 43.2822 -36.6972 main 1318 1302 P_____________ AL071989 43.2822 -36.6972 HU 77 978 1 22 19
1989230N14338 1989 82 NA NA ERIN 1989-08-26 06:00:00 TS 44.4000 -36.2000 75 980 hurdat_atl main 1306 1296 O_____________ hurdat_atl AL071989 44.4000 -36.2000 HU 75 980 1 25 17
1989230N14338 1989 82 NA NA ERIN 1989-08-26 09:00:00 TS 45.6693 -35.6915 main 1298 1297 P_____________ AL071989 45.6693 -35.6915 HU 72 981 1 27 16
1989230N14338 1989 82 NA NA ERIN 1989-08-26 12:00:00 TS 47.0000 -35.1000 70 983 hurdat_atl main 1313 1311 O_____________ hurdat_atl AL071989 47.0000 -35.1000 HU 70 983 1 28 20
1989230N14338 1989 82 NA NA ERIN 1989-08-26 15:00:00 TS 48.2650 -34.3433 main 1357 1328 P_____________ AL071989 48.2650 -34.3433 HU 67 984 1 27 23
1989230N14338 1989 82 NA NA ERIN 1989-08-26 18:00:00 TS 49.5000 -33.5000 65 986 hurdat_atl main 1321 1235 O_____________ hurdat_atl AL071989 49.5000 -33.5000 HU 65 986 1 27 24
1989230N14338 1989 82 NA NA ERIN 1989-08-26 21:00:00 TS 50.7084 -32.6551 main 1226 1148 P_____________ AL071989 50.7084 -32.6551 HU 62 988 0 26 24
1989230N14338 1989 82 NA NA ERIN 1989-08-27 00:00:00 TS 51.9000 -31.8000 60 991 hurdat_atl main 1142 O_____________ hurdat_atl AL071989 51.9000 -31.8000 TS 60 991 0 26 24

About IBTrACS Database

This database is a web-friendly format of International Best Track Archive for Climate Stewardship (IBTrACS), a global best track data archive curated by NOAA dating back to 1842.

Updated: 2021-12-08